Cherkessk, Russia
Current Conditions -  °F | °C
As of 5:00 PM on Monday 22 Dec 2014 (Local Time) from URMM Reporting Station
Overcast Overcast  
Wind Chill: 24°   Ceiling: 1300
Heat Index: 36°   Visibility: 6mi
Dew Point: 30°   Wind: 25mph
Humidity: 81%   Direction: 300°WNW
Pressure: 30"   Gusts: 31mph
Location:  44.29°N, 42.06°E
Report Text: URMM 221400Z 30011G14MPS 9999 OVC013 02/M01 Q1016 R30/CLRD70NOSIG RMK MT OBSC QFE734/0979
Loading
Personal Weather Stations






























Interactive Weather Map New forecast layout! Learn more

10-Day Weather Forecast

Advertisements
Track Severe Weather on mobile